Time;durP1;ratioP1;P1;durP2;ratioP2;P2;SDS_P1;SDS_P2;PMS_P1;PMS_P2;Temp;Humidity;BMP_temperature;BMP_pressure;BME280_temperature;BME280_humidity;BME280_pressure;Samples;Min_cycle;Max_cycle;Signal;HPM_P1;HPM_P2
2024/04/18 00:01:16;;;;;;;;;;;;;;;4.08;100.00;95661.57;108330;1284;125133;-87
2024/04/18 00:04:03;;;;;;;;;;;;;;;4.03;100.00;95668.34;108427;1284;22526;-88
2024/04/18 00:06:29;;;;;;;;;;;;;;;4.00;100.00;95664.06;108232;1284;125033;-87
2024/04/18 00:08:55;;;;;;;;;;;;;;;3.99;100.00;95669.27;108357;1285;22543;-86
2024/04/18 00:11:22;;;;;;;;;;;;;;;3.99;100.00;95666.17;108345;1285;24227;-87
2024/04/18 00:13:48;;;;;;;;;;;;;;;3.93;100.00;95665.95;108386;1279;124920;-87
2024/04/18 00:16:14;;;;;;;;;;;;;;;3.86;100.00;95666.66;108397;1280;22519;-87
2024/04/18 00:18:41;;;;;;;;;;;;;;;3.82;100.00;95661.66;108296;1284;125948;-87
2024/04/18 00:21:07;;;;;;;;;;;;;;;3.79;100.00;95660.78;108380;1276;22513;-87
2024/04/18 00:23:33;;;;;;;;;;;;;;;3.80;100.00;95661.98;108316;1284;125625;-87
2024/04/18 00:26:00;;;;;;;;;;;;;;;3.80;100.00;95663.23;108424;1284;23095;-87
2024/04/18 00:28:26;;;;;;;;;;;;;;;3.80;100.00;95664.38;108342;1284;22522;-87
2024/04/18 00:30:52;;;;;;;;;;;;;;;3.81;100.00;95662.93;108241;1282;125268;-87
2024/04/18 00:33:18;;;;;;;;;;;;;;;3.84;100.00;95663.00;108382;1276;22548;-87
2024/04/18 00:35:45;;;;;;;;;;;;;;;3.87;100.00;95666.77;108261;1285;125110;-86
2024/04/18 00:38:14;;;;;;;;;;;;;;;3.90;100.00;95665.78;108333;1284;22519;-87
2024/04/18 00:40:41;;;;;;;;;;;;;;;3.92;100.00;95665.18;108354;1284;22578;-87
2024/04/18 00:43:07;;;;;;;;;;;;;;;3.92;100.00;95664.20;108266;1276;125064;-87
2024/04/18 00:45:33;;;;;;;;;;;;;;;3.91;100.00;95664.41;108415;1283;24243;-87
2024/04/18 00:48:00;;;;;;;;;;;;;;;3.94;100.00;95659.23;108327;1285;125146;-87
2024/04/18 00:50:26;;;;;;;;;;;;;;;3.92;100.00;95660.59;108411;1284;22554;-87
2024/04/18 00:52:52;;;;;;;;;;;;;;;3.94;100.00;95662.45;108344;1277;25427;-88
2024/04/18 00:55:19;;;;;;;;;;;;;;;3.96;100.00;95658.85;108268;1284;124870;-87
2024/04/18 00:57:45;;;;;;;;;;;;;;;3.96;100.00;95660.84;108366;1284;22671;-87
2024/04/18 01:00:15;;;;;;;;;;;;;;;3.98;100.00;95658.48;108343;1282;125885;-87
2024/04/18 01:02:41;;;;;;;;;;;;;;;3.98;100.00;95661.36;108466;1280;22541;-87
2024/04/18 01:05:09;;;;;;;;;;;;;;;3.99;100.00;95662.84;108390;1285;24293;-87
2024/04/18 01:07:35;;;;;;;;;;;;;;;3.99;100.00;95664.86;108328;1284;124919;-87
2024/04/18 01:10:01;;;;;;;;;;;;;;;3.99;100.00;95665.86;108316;1284;22518;-87
2024/04/18 01:12:28;;;;;;;;;;;;;;;4.01;100.00;95664.35;108265;1284;124993;-87
2024/04/18 01:14:54;;;;;;;;;;;;;;;4.00;100.00;95662.02;108377;1276;22500;-87
2024/04/18 01:17:20;;;;;;;;;;;;;;;3.99;100.00;95663.70;108371;1284;22689;-87
2024/04/18 01:19:46;;;;;;;;;;;;;;;3.98;100.00;95663.22;108337;1280;125427;-87
2024/04/18 01:22:13;;;;;;;;;;;;;;;3.98;100.00;95662.52;108366;1280;22567;-87
2024/04/18 01:24:39;;;;;;;;;;;;;;;3.99;100.00;95663.54;108265;1284;124979;-87
2024/04/18 01:27:05;;;;;;;;;;;;;;;3.97;100.00;95665.70;108308;1284;22537;-87
2024/04/18 01:29:31;;;;;;;;;;;;;;;3.99;100.00;95665.61;108368;1284;22551;-87
2024/04/18 01:31:58;;;;;;;;;;;;;;;3.99;100.00;95667.59;108268;1284;124852;-87
2024/04/18 01:34:24;;;;;;;;;;;;;;;3.99;100.00;95667.91;108390;1283;22552;-87
2024/04/18 01:36:51;;;;;;;;;;;;;;;4.00;100.00;95667.38;108300;1284;124959;-87
2024/04/18 01:39:18;;;;;;;;;;;;;;;3.96;100.00;95667.04;108394;1277;22539;-87
2024/04/18 01:41:44;;;;;;;;;;;;;;;3.94;100.00;95666.91;108266;1284;125346;-87
2024/04/18 01:44:10;;;;;;;;;;;;;;;3.93;100.00;95666.82;108375;1284;22501;-87
2024/04/18 01:46:36;;;;;;;;;;;;;;;3.94;100.00;95667.11;108378;1284;23275;-87
2024/04/18 01:49:03;;;;;;;;;;;;;;;3.94;100.00;95666.09;108301;1284;124945;-87
2024/04/18 01:51:29;;;;;;;;;;;;;;;3.94;100.00;95668.63;108390;1282;22556;-87
2024/04/18 01:53:55;;;;;;;;;;;;;;;3.95;100.00;95667.84;108379;1284;125251;-87
2024/04/18 01:56:22;;;;;;;;;;;;;;;3.95;100.00;95669.59;108493;1280;22568;-87
2024/04/18 01:58:51;;;;;;;;;;;;;;;3.95;100.00;95673.02;108405;1284;24251;-88
2024/04/18 02:01:21;;;;;;;;;;;;;;;3.95;100.00;95673.66;108288;1284;125045;-87
2024/04/18 02:03:47;;;;;;;;;;;;;;;3.92;100.00;95675.02;108349;1284;22524;-87
2024/04/18 02:06:15;;;;;;;;;;;;;;;3.92;100.00;95673.45;108366;1284;125264;-87
2024/04/18 02:08:42;;;;;;;;;;;;;;;3.93;100.00;95675.27;108382;1284;23766;-87
2024/04/18 02:11:08;;;;;;;;;;;;;;;3.95;100.00;95677.66;108453;1284;22499;-87
2024/04/18 02:13:34;;;;;;;;;;;;;;;3.93;100.00;95676.11;108279;1285;124951;-87
2024/04/18 02:16:01;;;;;;;;;;;;;;;3.92;100.00;95676.23;108382;1285;22522;-87
2024/04/18 02:18:27;;;;;;;;;;;;;;;3.92;100.00;95676.20;108303;1284;124919;-87
2024/04/18 02:20:54;;;;;;;;;;;;;;;3.91;100.00;95674.44;108315;1285;22505;-87
2024/04/18 02:23:23;;;;;;;;;;;;;;;3.90;100.00;95671.94;108355;1285;24799;-87
2024/04/18 02:25:49;;;;;;;;;;;;;;;3.91;100.00;95674.27;108337;1283;124711;-87
2024/04/18 02:28:16;;;;;;;;;;;;;;;3.88;100.00;95674.98;108403;1285;22516;-87
2024/04/18 02:30:42;;;;;;;;;;;;;;;3.88;100.00;95674.30;108238;1284;124984;-87
2024/04/18 02:33:08;;;;;;;;;;;;;;;3.90;100.00;95673.16;108417;1284;22978;-87
2024/04/18 02:35:34;;;;;;;;;;;;;;;3.88;100.00;95673.15;108196;1279;124053;-87
2024/04/18 02:38:01;;;;;;;;;;;;;;;3.87;100.00;95674.63;108394;1278;22516;-87
2024/04/18 02:40:27;;;;;;;;;;;;;;;3.83;100.00;95675.55;108410;1278;24446;-87
2024/04/18 02:42:53;;;;;;;;;;;;;;;3.79;100.00;95679.38;108404;1284;125242;-87
2024/04/18 02:45:20;;;;;;;;;;;;;;;3.77;100.00;95682.02;108460;1277;23697;-87
2024/04/18 02:47:46;;;;;;;;;;;;;;;3.80;100.00;95682.05;108298;1271;125149;-88
2024/04/18 02:50:12;;;;;;;;;;;;;;;3.81;100.00;95680.92;108324;1277;22594;-87
2024/04/18 02:52:39;;;;;;;;;;;;;;;3.83;100.00;95682.98;108349;1284;22537;-87
2024/04/18 02:55:05;;;;;;;;;;;;;;;3.83;100.00;95684.46;108242;1278;124953;-87
2024/04/18 02:57:31;;;;;;;;;;;;;;;3.85;100.00;95680.00;108377;1278;25400;-87
2024/04/18 03:00:00;;;;;;;;;;;;;;;3.86;100.00;95677.64;108273;1285;125323;-87
2024/04/18 03:02:27;;;;;;;;;;;;;;;3.88;100.00;95679.77;108391;1279;22570;-87
2024/04/18 03:04:53;;;;;;;;;;;;;;;3.88;100.00;95676.02;108321;1285;22541;-87
2024/04/18 03:07:21;;;;;;;;;;;;;;;3.86;100.00;95681.25;108323;1284;125094;-87
2024/04/18 03:09:48;;;;;;;;;;;;;;;3.84;100.00;95678.71;108423;1284;24610;-88
2024/04/18 03:12:14;;;;;;;;;;;;;;;3.82;100.00;95681.34;108322;1285;125124;-87
2024/04/18 03:14:41;;;;;;;;;;;;;;;3.83;100.00;95680.25;108353;1280;23243;-87
2024/04/18 03:17:08;;;;;;;;;;;;;;;3.85;100.00;95681.38;108450;1277;22827;-87
2024/04/18 03:19:34;;;;;;;;;;;;;;;3.86;100.00;95678.16;108293;1284;124899;-88
2024/04/18 03:22:00;;;;;;;;;;;;;;;3.83;100.00;95681.54;108321;1280;22642;-87
2024/04/18 03:24:27;;;;;;;;;;;;;;;3.82;100.00;95680.11;108237;1285;125082;-87
2024/04/18 03:26:53;;;;;;;;;;;;;;;3.82;100.00;95679.60;108391;1285;22505;-87
2024/04/18 03:29:19;;;;;;;;;;;;;;;3.84;100.00;95681.24;108354;1284;22523;-87
2024/04/18 03:31:46;;;;;;;;;;;;;;;3.82;100.00;95677.52;108399;1284;125076;-89
2024/04/18 03:34:13;;;;;;;;;;;;;;;3.81;100.00;95678.20;108381;1279;22828;-87
2024/04/18 03:36:48;;;;;;;;;;;;;;;3.79;100.00;95680.25;108267;1284;124939;-87
2024/04/18 03:39:15;;;;;;;;;;;;;;;3.73;100.00;95684.09;108380;1284;22909;-87
2024/04/18 03:41:41;;;;;;;;;;;;;;;3.74;100.00;95685.94;108301;1284;125143;-87
2024/04/18 03:44:07;;;;;;;;;;;;;;;3.74;100.00;95688.13;108438;1284;22641;-87
2024/04/18 03:46:35;;;;;;;;;;;;;;;3.73;100.00;95690.29;108421;1276;22531;-87
2024/04/18 03:49:01;;;;;;;;;;;;;;;3.73;100.00;95691.80;108268;1284;124957;-87
2024/04/18 03:51:29;;;;;;;;;;;;;;;3.75;100.00;95696.94;108363;1278;22566;-87
2024/04/18 03:53:56;;;;;;;;;;;;;;;3.73;100.00;95697.20;108279;1284;125122;-86
2024/04/18 03:56:22;;;;;;;;;;;;;;;3.71;100.00;95697.84;108380;1285;24244;-87
2024/04/18 03:58:49;;;;;;;;;;;;;;;3.71;100.00;95696.81;108324;1279;22507;-87
2024/04/18 04:01:17;;;;;;;;;;;;;;;3.72;100.00;95697.74;108284;1280;124271;-87
2024/04/18 04:03:44;;;;;;;;;;;;;;;3.74;100.00;95701.49;108399;1281;22551;-87
2024/04/18 04:06:10;;;;;;;;;;;;;;;3.74;100.00;95701.70;108271;1281;125296;-87
2024/04/18 04:08:36;;;;;;;;;;;;;;;3.74;100.00;95701.17;108354;1285;22517;-87
2024/04/18 04:11:03;;;;;;;;;;;;;;;3.73;100.00;95704.39;108440;1284;22526;-88
2024/04/18 04:13:29;;;;;;;;;;;;;;;3.72;100.00;95707.86;108292;1284;125168;-87
2024/04/18 04:15:55;;;;;;;;;;;;;;;3.70;100.00;95709.75;108379;1280;22557;-87
2024/04/18 04:18:24;;;;;;;;;;;;;;;3.66;100.00;95707.30;108299;1284;125035;-87
2024/04/18 04:20:50;;;;;;;;;;;;;;;3.64;100.00;95712.83;108308;1276;25208;-87
2024/04/18 04:23:16;;;;;;;;;;;;;;;3.64;100.00;95714.59;108451;1284;22544;-87
2024/04/18 04:25:42;;;;;;;;;;;;;;;3.63;100.00;95717.20;108254;1278;125025;-86
2024/04/18 04:28:09;;;;;;;;;;;;;;;3.63;100.00;95719.95;108381;1267;22526;-87
2024/04/18 04:30:35;;;;;;;;;;;;;;;3.62;100.00;95724.35;108316;1283;125382;-87
2024/04/18 04:33:01;;;;;;;;;;;;;;;3.60;100.00;95722.45;108458;1277;22495;-87
2024/04/18 04:35:28;;;;;;;;;;;;;;;3.59;100.00;95723.38;108349;1284;22506;-87
2024/04/18 04:37:54;;;;;;;;;;;;;;;3.60;100.00;95724.98;108298;1284;124831;-87
2024/04/18 04:40:20;;;;;;;;;;;;;;;3.62;100.00;95730.13;108316;1284;22544;-86
2024/04/18 04:42:46;;;;;;;;;;;;;;;3.64;100.00;95734.09;108283;1278;125034;-87
2024/04/18 04:45:13;;;;;;;;;;;;;;;3.65;100.00;95736.66;108373;1284;22563;-87
2024/04/18 04:47:39;;;;;;;;;;;;;;;3.66;100.00;95735.56;108318;1283;125081;-87
2024/04/18 04:50:06;;;;;;;;;;;;;;;3.68;100.00;95739.33;108368;1284;22499;-87
2024/04/18 04:52:32;;;;;;;;;;;;;;;3.69;100.00;95743.50;108414;1284;22522;-88
2024/04/18 04:54:58;;;;;;;;;;;;;;;3.68;100.00;95747.45;108276;1284;125106;-87
2024/04/18 04:57:25;;;;;;;;;;;;;;;3.68;100.00;95749.41;108353;1284;22548;-87
2024/04/18 04:59:55;;;;;;;;;;;;;;;3.67;100.00;95747.29;108320;1284;125084;-87
2024/04/18 05:02:25;;;;;;;;;;;;;;;3.68;100.00;95748.58;108378;1276;23112;-87
2024/04/18 05:04:51;;;;;;;;;;;;;;;3.71;100.00;95751.98;108402;1284;25368;-87
2024/04/18 05:07:17;;;;;;;;;;;;;;;3.74;100.00;95752.27;108311;1284;125045;-87
2024/04/18 05:09:44;;;;;;;;;;;;;;;3.77;100.00;95755.21;108341;1279;22503;-87
2024/04/18 05:12:10;;;;;;;;;;;;;;;3.79;100.00;95759.23;108297;1283;125322;-87
2024/04/18 05:14:36;;;;;;;;;;;;;;;3.81;100.00;95757.34;108382;1284;25414;-87
2024/04/18 05:17:05;;;;;;;;;;;;;;;3.80;100.00;95762.55;108389;1284;23241;-87
2024/04/18 05:19:31;;;;;;;;;;;;;;;3.82;100.00;95764.64;108303;1278;138315;-87
2024/04/18 05:21:58;;;;;;;;;;;;;;;3.82;100.00;95764.48;108360;1284;22584;-87
2024/04/18 05:24:24;;;;;;;;;;;;;;;3.82;100.00;95764.39;108288;1285;124940;-87
2024/04/18 05:26:50;;;;;;;;;;;;;;;3.84;100.00;95768.02;108386;1277;22493;-87
2024/04/18 05:32:02;;;;;;;;;;;;;;;3.91;100.00;95769.66;108405;1277;22513;-87
2024/04/18 05:34:30;;;;;;;;;;;;;;;3.92;100.00;95771.46;108361;1284;22519;-86
2024/04/18 05:36:56;;;;;;;;;;;;;;;3.89;100.00;95776.00;108329;1284;124942;-87
2024/04/18 05:39:22;;;;;;;;;;;;;;;3.88;100.00;95777.14;108394;1281;22528;-87
2024/04/18 05:41:49;;;;;;;;;;;;;;;3.91;100.00;95775.30;108268;1278;125133;-87
2024/04/18 05:44:15;;;;;;;;;;;;;;;3.90;100.00;95773.71;108409;1284;23318;-87
2024/04/18 05:46:41;;;;;;;;;;;;;;;3.90;100.00;95776.78;108369;1284;22522;-87
2024/04/18 05:49:08;;;;;;;;;;;;;;;3.97;100.00;95778.83;108359;1284;125184;-87
2024/04/18 05:51:34;;;;;;;;;;;;;;;4.03;100.00;95781.16;108378;1284;22512;-87
2024/04/18 05:54:00;;;;;;;;;;;;;;;4.07;100.00;95781.08;108310;1284;125169;-86
2024/04/18 05:56:27;;;;;;;;;;;;;;;4.10;100.00;95781.45;108358;1284;22537;-87
2024/04/18 05:58:55;;;;;;;;;;;;;;;4.11;100.00;95784.15;108423;1284;22556;-87
2024/04/18 06:01:22;;;;;;;;;;;;;;;4.09;100.00;95782.92;108314;1277;125061;-87
2024/04/18 06:03:48;;;;;;;;;;;;;;;4.11;100.00;95783.92;108345;1284;22555;-87
2024/04/18 06:06:15;;;;;;;;;;;;;;;4.12;100.00;95781.55;108263;1279;125379;-87
2024/04/18 06:08:41;;;;;;;;;;;;;;;4.14;100.00;95785.11;108378;1267;22539;-87
2024/04/18 06:11:07;;;;;;;;;;;;;;;4.19;100.00;95790.59;108403;1284;22535;-87
2024/04/18 06:13:36;;;;;;;;;;;;;;;4.24;100.00;95791.84;108244;1280;125188;-87
2024/04/18 06:16:03;;;;;;;;;;;;;;;4.24;100.00;95794.40;108347;1284;22911;-86
2024/04/18 06:18:29;;;;;;;;;;;;;;;4.21;100.00;95796.70;108310;1284;125003;-86
2024/04/18 06:20:56;;;;;;;;;;;;;;;4.22;100.00;95796.15;108415;1283;22539;-87
2024/04/18 06:23:22;;;;;;;;;;;;;;;4.23;100.00;95795.89;108391;1267;22525;-87
2024/04/18 06:25:48;;;;;;;;;;;;;;;4.23;100.00;95799.65;108279;1284;125130;-87
2024/04/18 06:28:14;;;;;;;;;;;;;;;4.22;100.00;95798.22;108433;1284;22617;-88
2024/04/18 06:30:41;;;;;;;;;;;;;;;4.18;100.00;95796.66;108321;1284;125173;-87
2024/04/18 06:33:07;;;;;;;;;;;;;;;4.13;100.00;95798.42;108354;1277;25363;-87
2024/04/18 06:35:34;;;;;;;;;;;;;;;4.12;100.00;95798.93;108346;1284;23347;-86
2024/04/18 06:38:00;;;;;;;;;;;;;;;4.11;100.00;95801.19;108280;1280;124894;-87
2024/04/18 06:40:27;;;;;;;;;;;;;;;4.13;100.00;95804.27;108364;1276;23220;-87
2024/04/18 06:42:53;;;;;;;;;;;;;;;4.13;100.00;95808.03;108329;1281;125418;-87
2024/04/18 06:45:21;;;;;;;;;;;;;;;4.14;100.00;95810.47;108443;1284;22531;-87
2024/04/18 06:47:48;;;;;;;;;;;;;;;4.14;100.00;95811.38;108276;1284;125136;-88
2024/04/18 06:50:18;;;;;;;;;;;;;;;4.17;100.00;95812.41;108418;1284;24178;-88
2024/04/18 06:52:44;;;;;;;;;;;;;;;4.18;100.00;95813.47;108380;1284;22561;-87
2024/04/18 06:55:11;;;;;;;;;;;;;;;4.20;100.00;95813.27;108297;1284;125208;-88
2024/04/18 06:57:37;;;;;;;;;;;;;;;4.21;100.00;95818.00;108317;1284;22543;-88
2024/04/18 07:00:07;;;;;;;;;;;;;;;4.22;100.00;95818.27;108272;1284;125159;-87
2024/04/18 07:02:35;;;;;;;;;;;;;;;4.26;100.00;95817.73;108375;1284;22527;-88
2024/04/18 07:05:01;;;;;;;;;;;;;;;4.28;100.00;95821.48;108351;1284;22512;-88
2024/04/18 07:07:27;;;;;;;;;;;;;;;4.26;100.00;95821.86;108374;1284;124942;-88
2024/04/18 07:09:54;;;;;;;;;;;;;;;4.27;100.00;95825.02;108433;1276;23368;-88
2024/04/18 07:12:20;;;;;;;;;;;;;;;4.27;100.00;95829.27;108354;1284;125352;-87
2024/04/18 07:14:46;;;;;;;;;;;;;;;4.26;100.00;95830.10;108424;1284;23068;-88
2024/04/18 07:17:13;;;;;;;;;;;;;;;4.28;100.00;95829.83;108436;1281;22559;-88
2024/04/18 07:19:39;;;;;;;;;;;;;;;4.28;100.00;95829.65;108312;1284;124984;-88
2024/04/18 07:22:05;;;;;;;;;;;;;;;4.28;100.00;95831.77;108397;1284;22513;-88
2024/04/18 07:24:32;;;;;;;;;;;;;;;4.27;100.00;95829.62;108319;1271;125414;-88
2024/04/18 07:26:58;;;;;;;;;;;;;;;4.28;100.00;95835.85;108367;1284;22550;-88
2024/04/18 07:29:24;;;;;;;;;;;;;;;4.31;100.00;95839.37;108412;1284;22547;-88
2024/04/18 07:31:51;;;;;;;;;;;;;;;4.27;100.00;95841.45;108304;1285;124984;-89
2024/04/18 07:34:17;;;;;;;;;;;;;;;4.21;100.00;95842.38;108445;1284;23742;-88
2024/04/18 07:36:44;;;;;;;;;;;;;;;4.20;100.00;95844.30;108359;1284;125048;-89
2024/04/18 07:39:11;;;;;;;;;;;;;;;4.23;100.00;95843.02;108315;1280;25195;-88
2024/04/18 07:41:37;;;;;;;;;;;;;;;4.26;100.00;95840.55;108318;1277;125142;-88
2024/04/18 07:44:03;;;;;;;;;;;;;;;4.25;100.00;95840.67;108387;1282;22880;-89
2024/04/18 07:46:32;;;;;;;;;;;;;;;4.25;100.00;95843.89;108353;1274;22704;-89
2024/04/18 07:48:58;;;;;;;;;;;;;;;4.24;100.00;95846.69;108276;1277;125003;-88
2024/04/18 07:51:24;;;;;;;;;;;;;;;4.22;100.00;95854.26;108359;1280;22502;-88
2024/04/18 07:53:50;;;;;;;;;;;;;;;4.18;100.00;95857.27;108306;1285;125139;-88
2024/04/18 07:56:17;;;;;;;;;;;;;;;4.16;100.00;95856.80;108439;1283;23796;-88
2024/04/18 07:58:48;;;;;;;;;;;;;;;4.13;100.00;95859.08;108405;1279;22560;-88
2024/04/18 08:01:16;;;;;;;;;;;;;;;4.12;100.00;95861.84;108307;1282;124951;-88
2024/04/18 08:03:42;;;;;;;;;;;;;;;4.11;100.00;95861.58;108342;1280;22685;-88
2024/04/18 08:06:08;;;;;;;;;;;;;;;4.13;100.00;95859.64;108310;1282;125536;-88
2024/04/18 08:08:34;;;;;;;;;;;;;;;4.17;100.00;95861.27;108391;1283;22559;-88
2024/04/18 08:11:01;;;;;;;;;;;;;;;4.25;100.00;95861.76;108407;1282;22575;-88
2024/04/18 08:13:27;;;;;;;;;;;;;;;4.27;100.00;95863.60;108272;1278;125038;-88
2024/04/18 08:15:53;;;;;;;;;;;;;;;4.29;100.00;95866.66;108356;1284;22547;-88
2024/04/18 08:18:21;;;;;;;;;;;;;;;4.32;100.00;95865.31;108304;1284;125339;-88
2024/04/18 08:20:47;;;;;;;;;;;;;;;4.34;100.00;95865.45;108370;1285;23310;-88
2024/04/18 08:23:19;;;;;;;;;;;;;;;4.36;100.00;95864.64;108378;1284;22545;-88
2024/04/18 08:25:46;;;;;;;;;;;;;;;4.40;100.00;95861.88;108293;1285;124974;-88
2024/04/18 08:28:13;;;;;;;;;;;;;;;4.42;100.00;95859.92;108348;1277;23531;-88
2024/04/18 08:30:40;;;;;;;;;;;;;;;4.43;100.00;95861.53;108289;1285;125177;-88
2024/04/18 08:33:06;;;;;;;;;;;;;;;4.46;100.00;95859.86;108363;1277;22489;-88
2024/04/18 08:35:33;;;;;;;;;;;;;;;4.46;100.00;95857.32;108276;1276;22505;-88
2024/04/18 08:37:59;;;;;;;;;;;;;;;4.48;100.00;95861.34;108296;1277;124782;-88
2024/04/18 08:40:26;;;;;;;;;;;;;;;4.54;100.00;95864.52;108371;1285;22625;-88
2024/04/18 08:42:53;;;;;;;;;;;;;;;4.58;100.00;95862.60;108313;1278;125314;-88
2024/04/18 08:45:33;;;;;;;;;;;;;;;4.62;100.00;95861.80;108369;1285;22502;-87
2024/04/18 08:48:00;;;;;;;;;;;;;;;4.68;100.00;95858.66;108348;1284;125114;-87
2024/04/18 08:50:27;;;;;;;;;;;;;;;4.78;100.00;95857.98;108429;1284;22528;-87
2024/04/18 08:52:53;;;;;;;;;;;;;;;4.89;100.00;95860.41;108429;1277;22505;-87
2024/04/18 08:55:19;;;;;;;;;;;;;;;4.96;100.00;95862.13;108346;1284;124921;-87
2024/04/18 08:58:03;;;;;;;;;;;;;;;5.04;100.00;95857.81;108366;1285;22614;-87
2024/04/18 09:00:33;;;;;;;;;;;;;;;5.08;100.00;95859.30;108303;1284;125165;-87
2024/04/18 09:02:59;;;;;;;;;;;;;;;5.14;100.00;95855.95;108401;1284;25219;-87
2024/04/18 09:05:25;;;;;;;;;;;;;;;5.26;100.00;95855.31;108419;1284;22666;-87
2024/04/18 09:07:51;;;;;;;;;;;;;;;5.34;100.00;95854.10;108371;1276;124890;-87
2024/04/18 09:10:21;;;;;;;;;;;;;;;5.43;100.00;95852.50;108337;1284;22544;-88
2024/04/18 09:12:48;;;;;;;;;;;;;;;5.52;100.00;95854.64;108274;1284;125000;-87
2024/04/18 09:15:14;;;;;;;;;;;;;;;5.57;100.00;95855.45;108418;1284;22650;-87
2024/04/18 09:17:41;;;;;;;;;;;;;;;5.57;100.00;95858.09;108275;1277;125195;-87
2024/04/18 09:20:07;;;;;;;;;;;;;;;5.54;100.00;95856.29;108438;1276;22594;-87
2024/04/18 09:22:33;;;;;;;;;;;;;;;5.60;100.00;95848.45;108427;1271;22729;-87
2024/04/18 09:25:00;;;;;;;;;;;;;;;5.66;100.00;95848.63;108364;1277;125109;-87
2024/04/18 09:27:26;;;;;;;;;;;;;;;5.71;100.00;95845.38;108464;1276;25186;-87
2024/04/18 09:29:53;;;;;;;;;;;;;;;5.75;100.00;95844.30;108376;1277;125251;-87
2024/04/18 09:32:21;;;;;;;;;;;;;;;5.75;100.00;95845.50;108370;1271;22529;-88
2024/04/18 09:34:50;;;;;;;;;;;;;;;5.82;100.00;95846.27;108435;1277;22519;-87
2024/04/18 09:37:16;;;;;;;;;;;;;;;5.86;100.00;95845.70;108298;1284;124938;-87
2024/04/18 09:39:43;;;;;;;;;;;;;;;5.88;100.00;95846.63;108428;1284;22464;-87
2024/04/18 09:42:12;;;;;;;;;;;;;;;5.99;100.00;95838.98;108319;1284;125082;-88
2024/04/18 09:44:42;;;;;;;;;;;;;;;6.12;100.00;95837.02;108312;1281;22477;-87
2024/04/18 09:47:09;;;;;;;;;;;;;;;6.24;100.00;95838.23;108357;1284;22519;-87
2024/04/18 09:49:36;;;;;;;;;;;;;;;6.29;100.00;95838.92;108311;1278;125121;-88
2024/04/18 09:52:02;;;;;;;;;;;;;;;6.23;100.00;95843.41;108355;1285;24898;-88
2024/04/18 09:54:29;;;;;;;;;;;;;;;6.18;100.00;95839.65;108280;1284;125041;-88
2024/04/18 09:56:55;;;;;;;;;;;;;;;6.11;100.00;95837.45;108396;1284;22535;-88
2024/04/18 09:59:25;;;;;;;;;;;;;;;6.18;100.00;95838.79;108383;1278;22528;-88
2024/04/18 10:01:56;;;;;;;;;;;;;;;6.17;99.35;95844.00;108313;1277;124979;-88
2024/04/18 10:04:22;;;;;;;;;;;;;;;6.13;99.92;95843.59;108371;1284;22519;-88
2024/04/18 10:06:48;;;;;;;;;;;;;;;6.21;100.00;95842.29;108276;1284;124919;-88
2024/04/18 10:09:15;;;;;;;;;;;;;;;6.34;100.00;95845.41;108363;1284;22502;-88
2024/04/18 10:11:42;;;;;;;;;;;;;;;6.50;100.00;95844.34;108238;1284;125338;-88
2024/04/18 10:14:08;;;;;;;;;;;;;;;6.70;100.00;95840.88;108345;1284;22530;-88
2024/04/18 10:16:44;;;;;;;;;;;;;;;6.89;99.72;95845.86;108434;1284;22496;-88
2024/04/18 10:19:11;;;;;;;;;;;;;;;6.85;99.50;95848.31;108271;1276;125739;-88
2024/04/18 10:21:37;;;;;;;;;;;;;;;6.85;99.99;95846.13;108267;1284;199321;-88
2024/04/18 10:24:05;;;;;;;;;;;;;;;6.87;99.66;95847.63;108229;1284;125777;-88
2024/04/18 10:26:32;;;;;;;;;;;;;;;6.89;97.73;95849.41;108394;1277;22531;-88
2024/04/18 10:28:58;;;;;;;;;;;;;;;6.97;98.85;95850.32;108297;1268;22508;-88
2024/04/18 10:31:26;;;;;;;;;;;;;;;7.03;97.98;95848.58;108308;1277;125015;-88
2024/04/18 10:33:53;;;;;;;;;;;;;;;7.06;96.98;95846.74;108320;1284;24881;-88
2024/04/18 10:36:19;;;;;;;;;;;;;;;7.04;96.29;95849.38;108276;1284;125186;-88
2024/04/18 10:38:46;;;;;;;;;;;;;;;7.04;96.40;95849.15;108370;1284;22512;-88
2024/04/18 10:41:13;;;;;;;;;;;;;;;7.08;97.25;95844.53;108411;1284;24180;-88
2024/04/18 10:43:39;;;;;;;;;;;;;;;7.17;95.95;95845.27;108265;1277;124815;-88
2024/04/18 10:46:09;;;;;;;;;;;;;;;7.23;95.48;95844.10;108404;1280;22540;-88
2024/04/18 10:48:36;;;;;;;;;;;;;;;7.26;92.71;95847.04;108308;1278;124985;-86
2024/04/18 10:51:03;;;;;;;;;;;;;;;7.32;97.72;95842.51;108407;1278;22838;-87
2024/04/18 10:53:29;;;;;;;;;;;;;;;7.35;97.66;95848.88;108331;1284;22520;-87
2024/04/18 10:55:55;;;;;;;;;;;;;;;7.24;96.74;95845.14;108282;1284;124937;-87
2024/04/18 10:58:22;;;;;;;;;;;;;;;7.15;97.57;95843.73;108345;1284;22533;-86
2024/04/18 11:00:48;;;;;;;;;;;;;;;7.08;96.29;95845.07;108315;1284;124991;-87
2024/04/18 11:03:15;;;;;;;;;;;;;;;6.97;96.25;95848.45;108457;1284;22607;-87
2024/04/18 11:05:42;;;;;;;;;;;;;;;6.80;95.07;95853.17;108310;1284;124980;-87
2024/04/18 11:08:08;;;;;;;;;;;;;;;6.67;96.27;95860.06;108426;1284;22586;-87
2024/04/18 11:10:35;;;;;;;;;;;;;;;6.60;97.27;95865.61;108390;1271;22524;-87
2024/04/18 11:13:02;;;;;;;;;;;;;;;6.50;96.97;95863.26;108228;1280;124977;-87
2024/04/18 11:15:29;;;;;;;;;;;;;;;6.36;98.75;95866.52;108373;1276;23186;-87
2024/04/18 11:17:55;;;;;;;;;;;;;;;6.23;99.10;95865.42;108292;1284;125081;-88
2024/04/18 11:20:22;;;;;;;;;;;;;;;6.05;99.57;95861.88;108408;1284;22507;-87
2024/04/18 11:22:48;;;;;;;;;;;;;;;5.90;99.46;95866.41;108396;1283;22525;-88
2024/04/18 11:25:14;;;;;;;;;;;;;;;5.76;99.90;95865.63;108320;1277;124755;-87
2024/04/18 11:27:41;;;;;;;;;;;;;;;5.68;100.00;95868.88;108382;1277;23376;-87
2024/04/18 11:30:13;;;;;;;;;;;;;;;5.66;100.00;95868.64;108260;1276;125412;-87
2024/04/18 11:32:39;;;;;;;;;;;;;;;5.68;100.00;95870.07;108392;1278;22958;-87
2024/04/18 11:35:05;;;;;;;;;;;;;;;5.71;100.00;95870.64;108366;1277;22540;-88
2024/04/18 11:37:38;;;;;;;;;;;;;;;5.80;100.00;95869.58;108290;1284;124919;-88
2024/04/18 11:40:05;;;;;;;;;;;;;;;5.88;100.00;95864.07;108398;1278;22509;-87
2024/04/18 11:42:31;;;;;;;;;;;;;;;5.89;100.00;95866.13;108320;1280;125185;-87
2024/04/18 11:44:58;;;;;;;;;;;;;;;5.95;100.00;95865.96;108347;1284;22981;-87
2024/04/18 11:47:24;;;;;;;;;;;;;;;6.09;100.00;95867.41;108403;1284;22542;-87
2024/04/18 11:49:50;;;;;;;;;;;;;;;6.30;100.00;95865.69;108263;1277;125632;-87
2024/04/18 11:52:17;;;;;;;;;;;;;;;6.40;100.00;95875.40;108407;1277;24468;-88
2024/04/18 11:54:44;;;;;;;;;;;;;;;6.44;98.36;95874.55;108160;1284;125275;-87
2024/04/18 11:57:10;;;;;;;;;;;;;;;6.54;99.98;95868.36;108372;1281;22518;-87
2024/04/18 11:59:39;;;;;;;;;;;;;;;6.69;99.87;95869.61;108271;1284;124950;-87
2024/04/18 12:02:06;;;;;;;;;;;;;;;6.77;99.87;95872.33;108370;1284;22536;-87
2024/04/18 12:04:32;;;;;;;;;;;;;;;6.78;96.17;95874.65;108405;1277;22573;-87
2024/04/18 12:06:59;;;;;;;;;;;;;;;6.81;97.48;95875.51;108319;1284;124761;-86
2024/04/18 12:09:25;;;;;;;;;;;;;;;6.86;93.55;95875.94;108345;1284;22557;-86
2024/04/18 12:11:51;;;;;;;;;;;;;;;6.91;95.43;95874.90;108190;1284;125009;-87
2024/04/18 12:14:18;;;;;;;;;;;;;;;7.00;95.14;95877.36;108381;1277;25213;-87
2024/04/18 12:16:44;;;;;;;;;;;;;;;7.06;93.32;95883.52;108388;1278;23142;-87
2024/04/18 12:19:10;;;;;;;;;;;;;;;7.17;94.31;95885.90;108323;1284;124742;-87
2024/04/18 12:21:36;;;;;;;;;;;;;;;7.27;90.70;95878.55;108405;1277;22640;-87
2024/04/18 12:24:03;;;;;;;;;;;;;;;7.35;87.31;95884.25;108329;1278;125146;-88
2024/04/18 12:26:29;;;;;;;;;;;;;;;7.40;87.86;95887.31;108413;1277;24092;-88
2024/04/18 12:28:55;;;;;;;;;;;;;;;7.49;88.66;95880.42;108386;1283;23622;-87
2024/04/18 12:31:22;;;;;;;;;;;;;;;7.60;89.89;95878.29;108268;1284;124890;-87
2024/04/18 12:33:48;;;;;;;;;;;;;;;7.65;86.77;95874.43;108428;1284;22489;-88